Time;durP1;ratioP1;P1;durP2;ratioP2;P2;SDS_P1;SDS_P2;PMS_P1;PMS_P2;Temp;Humidity;BMP_temperature;BMP_pressure;BME280_temperature;BME280_humidity;BME280_pressure;Samples;Min_cycle;Max_cycle;Signal;HPM_P1;HPM_P2
2023/12/10 00:02:22;;;;;;;;;;;15.10;84.60;;;;;;4189709;28;19931;-47
2023/12/10 00:05:03;;;;;;;;;;;15.10;84.60;;;;;;4197047;28;20755;-47
2023/12/10 00:07:44;;;;;;;;;;;15.10;84.70;;;;;;4206636;28;19935;-45
2023/12/10 00:10:25;;;;;;;;;;;15.10;84.70;;;;;;4188828;28;19932;-46
2023/12/10 00:13:07;;;;;;;;;;;15.00;84.70;;;;;;4190283;28;20065;-47
2023/12/10 00:15:47;;;;;;;;;;;15.00;84.70;;;;;;4189796;28;19936;-46
2023/12/10 00:18:28;;;;;;;;;;;15.10;84.80;;;;;;4189369;28;19974;-47
2023/12/10 00:21:12;;;;;;;;;;;15.00;84.70;;;;;;4190408;28;19935;-46
2023/12/10 00:23:53;;;;;;;;;;;15.00;84.80;;;;;;4190036;28;20371;-47
2023/12/10 00:26:34;;;;;;;;;;;15.00;84.80;;;;;;4188957;28;20460;-48
2023/12/10 00:29:16;;;;;;;;;;;15.00;84.80;;;;;;4189966;28;19970;-48
2023/12/10 00:31:57;;;;;;;;;;;15.00;84.90;;;;;;4189772;28;19935;-46
2023/12/10 00:34:38;;;;;;;;;;;15.00;85.00;;;;;;4190845;28;20283;-50
2023/12/10 00:37:18;;;;;;;;;;;15.00;85.10;;;;;;4206062;28;19935;-46
2023/12/10 00:39:59;;;;;;;;;;;15.00;85.90;;;;;;4193372;28;20386;-47
2023/12/10 00:42:41;;;;;;;;;;;15.00;85.10;;;;;;4189232;28;19950;-46
2023/12/10 00:45:23;;;;;;;;;;;15.00;85.00;;;;;;4172284;28;20054;-47
2023/12/10 00:48:04;;;;;;;;;;;15.00;85.00;;;;;;4172929;28;19931;-46
2023/12/10 00:50:45;;;;;;;;;;;15.00;85.10;;;;;;4174365;28;19958;-47
2023/12/10 00:53:26;;;;;;;;;;;14.90;85.00;;;;;;4189501;28;19934;-47
2023/12/10 00:56:08;;;;;;;;;;;14.90;85.00;;;;;;4189202;28;20054;-47
2023/12/10 00:58:48;;;;;;;;;;;14.90;85.00;;;;;;4189033;28;19931;-49
2023/12/10 01:01:30;;;;;;;;;;;14.90;85.00;;;;;;4172546;28;19935;-47
2023/12/10 01:04:12;;;;;;;;;;;14.90;86.00;;;;;;4197936;28;19931;-47
2023/12/10 01:06:52;;;;;;;;;;;14.90;85.10;;;;;;4204834;28;19934;-47
2023/12/10 01:09:35;;;;;;;;;;;14.90;85.20;;;;;;4175869;28;20291;-46
2023/12/10 01:12:16;;;;;;;;;;;14.90;86.10;;;;;;4189348;28;19970;-46
2023/12/10 01:14:57;;;;;;;;;;;14.90;85.10;;;;;;4188676;28;19951;-46
2023/12/10 01:17:39;;;;;;;;;;;14.90;85.20;;;;;;4188417;28;19939;-51
2023/12/10 01:20:20;;;;;;;;;;;14.90;85.10;;;;;;4187396;28;20579;-51
2023/12/10 01:23:03;;;;;;;;;;;14.90;85.20;;;;;;4186006;28;19955;-53
2023/12/10 01:25:44;;;;;;;;;;;14.90;85.20;;;;;;4170057;28;19935;-53
2023/12/10 01:28:25;;;;;;;;;;;14.90;85.30;;;;;;4185265;28;20345;-52
2023/12/10 01:31:06;;;;;;;;;;;14.90;85.30;;;;;;4188581;28;19931;-54
2023/12/10 01:33:48;;;;;;;;;;;14.90;85.30;;;;;;4189213;28;19931;-47
2023/12/10 01:36:29;;;;;;;;;;;14.90;85.40;;;;;;4187675;28;19931;-48
2023/12/10 01:39:10;;;;;;;;;;;14.90;85.30;;;;;;4172121;28;19932;-50
2023/12/10 01:41:51;;;;;;;;;;;14.80;85.40;;;;;;4172623;28;19935;-52
2023/12/10 01:44:32;;;;;;;;;;;14.80;85.60;;;;;;4171202;28;19932;-50
2023/12/10 01:47:13;;;;;;;;;;;14.80;85.60;;;;;;4174609;28;20437;-52
2023/12/10 01:49:55;;;;;;;;;;;14.80;85.60;;;;;;4199564;28;20062;-50
2023/12/10 01:52:36;;;;;;;;;;;14.80;85.60;;;;;;4187193;28;19931;-51
2023/12/10 01:55:17;;;;;;;;;;;14.80;85.70;;;;;;4186335;28;19936;-54
2023/12/10 01:57:58;;;;;;;;;;;14.80;85.70;;;;;;4180783;28;20383;-51
2023/12/10 02:00:40;;;;;;;;;;;14.80;85.80;;;;;;4186165;28;20283;-51
2023/12/10 02:03:21;;;;;;;;;;;14.80;85.80;;;;;;4205018;28;19931;-51
2023/12/10 02:06:03;;;;;;;;;;;14.80;85.70;;;;;;4204841;28;19935;-50
2023/12/10 02:08:45;;;;;;;;;;;14.80;85.60;;;;;;4187369;28;20329;-52
2023/12/10 02:11:26;;;;;;;;;;;14.80;85.80;;;;;;4188556;28;19947;-51
2023/12/10 02:14:06;;;;;;;;;;;14.90;85.70;;;;;;4172917;28;19943;-52
2023/12/10 02:16:47;;;;;;;;;;;14.90;85.40;;;;;;4171054;28;20062;-52
2023/12/10 02:19:28;;;;;;;;;;;14.90;85.20;;;;;;4171447;28;19950;-50
2023/12/10 02:22:11;;;;;;;;;;;15.00;85.00;;;;;;4171571;28;20006;-50
2023/12/10 02:24:52;;;;;;;;;;;15.00;84.80;;;;;;4179106;28;19977;-54
2023/12/10 02:27:35;;;;;;;;;;;15.00;84.70;;;;;;4187858;28;19945;-46
2023/12/10 02:30:15;;;;;;;;;;;15.00;84.60;;;;;;4171287;28;20434;-47
2023/12/10 02:32:56;;;;;;;;;;;15.00;84.60;;;;;;4170401;28;19936;-48
2023/12/10 02:35:37;;;;;;;;;;;15.00;84.60;;;;;;4190101;28;19935;-47
2023/12/10 02:38:21;;;;;;;;;;;15.00;84.80;;;;;;4203770;28;19931;-47
2023/12/10 02:41:01;;;;;;;;;;;15.10;84.80;;;;;;4204454;28;19931;-46
2023/12/10 02:43:44;;;;;;;;;;;15.20;84.60;;;;;;4203302;28;19939;-48
2023/12/10 02:46:24;;;;;;;;;;;15.30;84.30;;;;;;4186867;28;20420;-46
2023/12/10 02:49:05;;;;;;;;;;;15.30;84.00;;;;;;4171344;28;20410;-46
2023/12/10 02:51:46;;;;;;;;;;;15.30;83.80;;;;;;4169781;28;19947;-46
2023/12/10 02:54:26;;;;;;;;;;;15.40;83.70;;;;;;4186513;28;19935;-45
2023/12/10 02:57:07;;;;;;;;;;;15.40;83.60;;;;;;4187535;28;20385;-47
2023/12/10 02:59:50;;;;;;;;;;;15.40;83.60;;;;;;4171071;28;20390;-47
2023/12/10 03:02:31;;;;;;;;;;;15.40;83.50;;;;;;4186935;28;19932;-49
2023/12/10 03:05:11;;;;;;;;;;;15.50;83.30;;;;;;4187188;28;19981;-47
2023/12/10 03:07:52;;;;;;;;;;;15.50;83.90;;;;;;4187689;28;19932;-48
2023/12/10 03:10:32;;;;;;;;;;;15.60;82.80;;;;;;4186698;28;19936;-48
2023/12/10 03:13:13;;;;;;;;;;;15.60;82.70;;;;;;4194472;28;19931;-49
2023/12/10 03:15:55;;;;;;;;;;;15.60;82.70;;;;;;4204413;28;19981;-47
2023/12/10 03:18:36;;;;;;;;;;;15.60;82.60;;;;;;4190527;28;20394;-47
2023/12/10 03:21:17;;;;;;;;;;;15.70;82.60;;;;;;4176194;28;20310;-48
2023/12/10 03:23:57;;;;;;;;;;;15.70;82.50;;;;;;4187076;28;19930;-47
2023/12/10 03:26:38;;;;;;;;;;;15.70;82.30;;;;;;4187455;28;20299;-47
2023/12/10 03:29:19;;;;;;;;;;;15.70;82.30;;;;;;4187428;28;20066;-47
2023/12/10 03:32:01;;;;;;;;;;;15.80;82.10;;;;;;4187431;28;20433;-47
2023/12/10 03:34:42;;;;;;;;;;;15.80;82.90;;;;;;4187256;28;20387;-48
2023/12/10 03:37:23;;;;;;;;;;;15.80;82.00;;;;;;4187208;28;20328;-48
2023/12/10 03:40:04;;;;;;;;;;;15.90;81.90;;;;;;4186262;28;20014;-50
2023/12/10 03:42:45;;;;;;;;;;;16.00;81.40;;;;;;4186810;28;19931;-47
2023/12/10 03:45:26;;;;;;;;;;;16.10;81.10;;;;;;4187051;28;20394;-47
2023/12/10 03:48:08;;;;;;;;;;;16.10;80.90;;;;;;4168212;28;20010;-49
2023/12/10 03:50:51;;;;;;;;;;;16.10;80.90;;;;;;4168940;28;20306;-50
2023/12/10 03:53:32;;;;;;;;;;;16.10;80.90;;;;;;4183614;28;19936;-49
2023/12/10 03:56:13;;;;;;;;;;;16.10;80.90;;;;;;4183418;28;19931;-47
2023/12/10 03:58:54;;;;;;;;;;;16.10;80.80;;;;;;4184048;28;19935;-49
2023/12/10 04:01:35;;;;;;;;;;;16.10;80.40;;;;;;4183944;28;20287;-46
2023/12/10 04:04:17;;;;;;;;;;;16.20;80.40;;;;;;4198559;27;19956;-48
2023/12/10 04:06:58;;;;;;;;;;;16.20;80.30;;;;;;4205481;28;19939;-46
2023/12/10 04:09:40;;;;;;;;;;;16.10;80.40;;;;;;4198648;28;20452;-46
2023/12/10 04:12:21;;;;;;;;;;;16.10;80.50;;;;;;4203967;28;19947;-49
2023/12/10 04:15:02;;;;;;;;;;;16.00;80.70;;;;;;4190361;28;20014;-47
2023/12/10 04:17:43;;;;;;;;;;;16.00;80.80;;;;;;4188312;28;20021;-52
2023/12/10 04:20:25;;;;;;;;;;;16.00;81.10;;;;;;4188395;28;19947;-51
2023/12/10 04:23:06;;;;;;;;;;;16.00;81.00;;;;;;4181687;28;19995;-53
2023/12/10 04:25:47;;;;;;;;;;;16.00;80.90;;;;;;4189860;28;20062;-52
2023/12/10 04:28:27;;;;;;;;;;;16.00;80.90;;;;;;4190348;28;20070;-54
2023/12/10 04:31:08;;;;;;;;;;;16.00;81.00;;;;;;4190047;28;19939;-55
2023/12/10 04:33:50;;;;;;;;;;;16.00;81.80;;;;;;4189986;28;19977;-53
2023/12/10 04:36:32;;;;;;;;;;;15.90;81.10;;;;;;4199256;28;20021;-53
2023/12/10 04:39:15;;;;;;;;;;;15.90;81.20;;;;;;4206362;28;20317;-54
2023/12/10 04:41:56;;;;;;;;;;;15.90;81.40;;;;;;4206448;28;19935;-54
2023/12/10 04:44:36;;;;;;;;;;;15.80;81.60;;;;;;4202243;28;19939;-54
2023/12/10 04:47:17;;;;;;;;;;;15.90;81.70;;;;;;4189876;28;19935;-53
2023/12/10 04:49:58;;;;;;;;;;;16.00;82.30;;;;;;4187465;28;19931;-52
2023/12/10 04:52:40;;;;;;;;;;;16.00;81.20;;;;;;4188450;28;20404;-50
2023/12/10 04:55:22;;;;;;;;;;;16.00;80.90;;;;;;4190046;28;20283;-51
2023/12/10 04:58:02;;;;;;;;;;;16.10;80.90;;;;;;4188712;28;19931;-53
2023/12/10 05:00:43;;;;;;;;;;;16.20;80.90;;;;;;4188563;28;20433;-52
2023/12/10 05:03:24;;;;;;;;;;;16.20;80.50;;;;;;4187358;28;19930;-54
2023/12/10 05:06:05;;;;;;;;;;;16.30;80.10;;;;;;4195978;28;20137;-50
2023/12/10 05:08:49;;;;;;;;;;;16.30;79.90;;;;;;4201683;28;20299;-51
2023/12/10 05:11:29;;;;;;;;;;;16.30;79.90;;;;;;4205625;28;19931;-52
2023/12/10 05:14:10;;;;;;;;;;;16.40;79.80;;;;;;4188714;28;20406;-51
2023/12/10 05:16:51;;;;;;;;;;;16.40;79.70;;;;;;4185709;28;20082;-47
2023/12/10 05:19:32;;;;;;;;;;;16.40;79.60;;;;;;4187033;28;19931;-53
2023/12/10 05:22:13;;;;;;;;;;;16.30;79.70;;;;;;4187185;28;20055;-51
2023/12/10 05:24:56;;;;;;;;;;;16.30;79.70;;;;;;4172466;28;19936;-52
2023/12/10 05:27:36;;;;;;;;;;;16.30;80.00;;;;;;4156593;28;19932;-51
2023/12/10 05:30:17;;;;;;;;;;;16.30;80.20;;;;;;4156099;28;19951;-54
2023/12/10 05:32:58;;;;;;;;;;;16.40;80.10;;;;;;4159538;28;19931;-51
2023/12/10 05:35:38;;;;;;;;;;;16.40;79.80;;;;;;4187604;28;19951;-54
2023/12/10 05:38:19;;;;;;;;;;;16.40;79.70;;;;;;4189126;28;20073;-52
2023/12/10 05:41:02;;;;;;;;;;;16.40;79.60;;;;;;4189121;28;19978;-54
2023/12/10 05:43:42;;;;;;;;;;;16.50;79.70;;;;;;4187943;28;19935;-54
2023/12/10 05:46:23;;;;;;;;;;;16.40;79.60;;;;;;4187604;28;19935;-50
2023/12/10 05:49:04;;;;;;;;;;;16.40;79.60;;;;;;4187329;28;20413;-53
2023/12/10 05:51:46;;;;;;;;;;;16.40;79.70;;;;;;4186684;28;19931;-54
2023/12/10 05:54:26;;;;;;;;;;;16.40;79.80;;;;;;4186354;28;20283;-50
2023/12/10 05:57:08;;;;;;;;;;;16.40;80.00;;;;;;4169923;28;20145;-53
2023/12/10 05:59:49;;;;;;;;;;;16.30;80.00;;;;;;4171821;28;20285;-51
2023/12/10 06:02:30;;;;;;;;;;;16.40;80.10;;;;;;4183214;28;19932;-51
2023/12/10 06:05:11;;;;;;;;;;;16.40;79.80;;;;;;4170778;28;19932;-53
2023/12/10 06:07:52;;;;;;;;;;;16.50;79.60;;;;;;4153904;28;19951;-51
2023/12/10 06:10:33;;;;;;;;;;;16.40;79.30;;;;;;4170711;28;19932;-50
2023/12/10 06:13:15;;;;;;;;;;;16.40;79.50;;;;;;4171318;28;19936;-51
2023/12/10 06:15:56;;;;;;;;;;;16.40;80.40;;;;;;4202978;28;19931;-48
2023/12/10 06:18:37;;;;;;;;;;;16.40;79.60;;;;;;4203030;28;19931;-49
2023/12/10 06:21:18;;;;;;;;;;;16.50;79.70;;;;;;4185386;28;20437;-47
2023/12/10 06:23:59;;;;;;;;;;;16.40;79.50;;;;;;4183180;28;20054;-47
2023/12/10 06:26:40;;;;;;;;;;;16.40;79.50;;;;;;4184063;28;19931;-49
2023/12/10 06:29:23;;;;;;;;;;;16.40;79.50;;;;;;4191050;28;19932;-51
2023/12/10 06:32:05;;;;;;;;;;;16.40;79.50;;;;;;4184148;28;19935;-50
2023/12/10 06:34:46;;;;;;;;;;;16.40;79.60;;;;;;4182627;28;20271;-48
2023/12/10 06:37:27;;;;;;;;;;;16.50;79.60;;;;;;4197436;28;19934;-48
2023/12/10 06:40:09;;;;;;;;;;;16.50;79.50;;;;;;4186628;28;19932;-51
2023/12/10 06:42:50;;;;;;;;;;;16.50;79.50;;;;;;4184620;28;20299;-52
2023/12/10 06:45:35;;;;;;;;;;;16.40;79.40;;;;;;4169149;28;25628;-51
2023/12/10 06:48:16;;;;;;;;;;;16.40;79.40;;;;;;4176518;28;19950;-52
2023/12/10 06:50:58;;;;;;;;;;;16.40;79.50;;;;;;4173117;28;20062;-54
2023/12/10 06:53:41;;;;;;;;;;;16.40;79.50;;;;;;4181816;28;19986;-52
2023/12/10 06:56:22;;;;;;;;;;;16.40;79.30;;;;;;4161843;28;20495;-51
2023/12/10 06:59:04;;;;;;;;;;;16.50;79.10;;;;;;4184425;28;20063;-54
2023/12/10 07:01:46;;;;;;;;;;;16.40;78.90;;;;;;4173965;28;19947;-53
2023/12/10 07:04:27;;;;;;;;;;;16.50;79.00;;;;;;4178535;28;19931;-53
2023/12/10 07:07:09;;;;;;;;;;;16.40;78.90;;;;;;4187281;28;19939;-51
2023/12/10 07:09:50;;;;;;;;;;;16.40;79.20;;;;;;4188010;28;20006;-53
2023/12/10 07:12:31;;;;;;;;;;;16.40;79.60;;;;;;4187121;28;19934;-54
2023/12/10 07:15:12;;;;;;;;;;;16.40;79.70;;;;;;4187734;28;19932;-54
2023/12/10 07:17:55;;;;;;;;;;;16.40;79.50;;;;;;4191563;28;19935;-54
2023/12/10 07:20:36;;;;;;;;;;;16.50;79.30;;;;;;4187239;28;20378;-52
2023/12/10 07:23:16;;;;;;;;;;;16.40;79.20;;;;;;4181494;28;20022;-51
2023/12/10 07:25:57;;;;;;;;;;;16.40;79.10;;;;;;4195906;28;20291;-51
2023/12/10 07:28:38;;;;;;;;;;;16.40;79.20;;;;;;4184658;28;19937;-54
2023/12/10 07:31:18;;;;;;;;;;;16.40;79.40;;;;;;4184375;28;19936;-54
2023/12/10 07:34:00;;;;;;;;;;;16.40;79.60;;;;;;4186830;28;19936;-53
2023/12/10 07:36:41;;;;;;;;;;;16.40;79.40;;;;;;4205168;28;19962;-52
2023/12/10 07:39:22;;;;;;;;;;;16.50;79.30;;;;;;4190952;28;20414;-53
2023/12/10 07:42:02;;;;;;;;;;;16.40;79.10;;;;;;4191191;28;20030;-53
2023/12/10 07:44:43;;;;;;;;;;;16.50;79.10;;;;;;4201223;28;19998;-51
2023/12/10 07:47:24;;;;;;;;;;;16.40;79.00;;;;;;4188591;28;20271;-50
2023/12/10 07:50:06;;;;;;;;;;;16.40;79.20;;;;;;4190420;28;19967;-53
2023/12/10 07:52:47;;;;;;;;;;;16.40;79.80;;;;;;4172939;28;19932;-53
2023/12/10 07:55:28;;;;;;;;;;;16.30;79.00;;;;;;4159094;28;20004;-50
2023/12/10 07:58:09;;;;;;;;;;;16.30;79.00;;;;;;4183548;28;19939;-50
2023/12/10 08:00:50;;;;;;;;;;;16.30;79.10;;;;;;4187452;28;19935;-50
2023/12/10 08:03:31;;;;;;;;;;;16.30;79.20;;;;;;4182289;28;19936;-53
2023/12/10 08:06:13;;;;;;;;;;;16.20;79.10;;;;;;4187380;28;19931;-53
2023/12/10 08:08:55;;;;;;;;;;;16.20;79.30;;;;;;4168077;28;20022;-51
2023/12/10 08:11:37;;;;;;;;;;;16.10;79.30;;;;;;4182108;28;19931;-50
2023/12/10 08:14:20;;;;;;;;;;;16.10;79.50;;;;;;4174192;28;19985;-52
2023/12/10 08:17:03;;;;;;;;;;;16.10;80.60;;;;;;4188997;28;19939;-50
2023/12/10 08:19:45;;;;;;;;;;;16.00;79.80;;;;;;4189917;28;20497;-51
2023/12/10 08:22:27;;;;;;;;;;;16.00;80.20;;;;;;4190491;28;20013;-51
2023/12/10 08:25:08;;;;;;;;;;;15.90;80.20;;;;;;4193602;28;19963;-49
2023/12/10 08:27:50;;;;;;;;;;;15.90;80.50;;;;;;4173782;28;20058;-50
2023/12/10 08:30:31;;;;;;;;;;;15.90;80.80;;;;;;4172474;28;20071;-51
2023/12/10 08:33:11;;;;;;;;;;;15.90;80.80;;;;;;4177810;28;19967;-53
2023/12/10 08:35:52;;;;;;;;;;;15.90;80.60;;;;;;4193838;28;20367;-52
2023/12/10 08:38:34;;;;;;;;;;;16.00;80.50;;;;;;4191384;28;20330;-51
2023/12/10 08:41:15;;;;;;;;;;;16.00;80.30;;;;;;4201969;27;19947;-51
2023/12/10 08:43:56;;;;;;;;;;;16.10;80.10;;;;;;4206677;28;20299;-50
2023/12/10 08:46:37;;;;;;;;;;;16.10;79.90;;;;;;4200873;28;19931;-51
2023/12/10 08:49:18;;;;;;;;;;;16.20;79.70;;;;;;4178835;28;20434;-53
2023/12/10 08:51:59;;;;;;;;;;;16.30;79.60;;;;;;4170826;28;19951;-48
2023/12/10 08:54:41;;;;;;;;;;;16.30;79.30;;;;;;4197720;28;19932;-46
2023/12/10 08:57:22;;;;;;;;;;;16.30;79.10;;;;;;4188749;28;19981;-47
2023/12/10 09:00:05;;;;;;;;;;;16.30;79.10;;;;;;4200806;28;19950;-47
2023/12/10 09:02:46;;;;;;;;;;;16.30;79.20;;;;;;4195682;28;19977;-48
2023/12/10 09:05:27;;;;;;;;;;;16.20;79.30;;;;;;4172997;28;19932;-46
2023/12/10 09:08:08;;;;;;;;;;;16.10;79.50;;;;;;4172559;28;20292;-46
2023/12/10 09:10:50;;;;;;;;;;;16.20;79.80;;;;;;4202452;28;19935;-47
2023/12/10 09:13:31;;;;;;;;;;;16.20;80.30;;;;;;4189955;28;20024;-47
2023/12/10 09:16:12;;;;;;;;;;;16.30;79.30;;;;;;4205482;28;19935;-47
2023/12/10 09:18:52;;;;;;;;;;;16.30;79.10;;;;;;4169723;28;20291;-47
2023/12/10 09:21:34;;;;;;;;;;;16.40;79.10;;;;;;4172080;28;19948;-45
2023/12/10 09:24:15;;;;;;;;;;;16.30;79.00;;;;;;4151870;28;19936;-46
2023/12/10 09:26:58;;;;;;;;;;;16.30;79.20;;;;;;4150832;28;20142;-48
2023/12/10 09:30:43;;;;;;;11.30;3.38;;;16.30;78.50;;;;;;4199095;27;20232;-44
2023/12/10 09:33:24;;;;;;;13.82;3.25;;;16.30;79.60;;;;;;4196991;28;20050;-47
2023/12/10 09:36:05;;;;;;;12.90;2.30;;;16.30;79.60;;;;;;4199736;28;20085;-50
2023/12/10 09:38:46;;;;;;;8.77;1.95;;;16.20;79.70;;;;;;4217364;27;20050;-50
2023/12/10 09:41:27;;;;;;;11.10;2.08;;;16.20;79.90;;;;;;4199835;28;20403;-48
2023/12/10 09:44:09;;;;;;;8.00;1.80;;;16.10;80.10;;;;;;4215623;27;20058;-48
2023/12/10 09:46:51;;;;;;;;;;;16.20;80.50;;;;;;4216693;27;20100;-48
2023/12/10 09:49:33;;;;;;;6.88;1.38;;;16.40;80.10;;;;;;4217539;27;19938;-48
2023/12/10 09:52:14;;;;;;;4.28;1.88;;;16.80;79.00;;;;;;4217069;27;20054;-50
2023/12/10 09:54:56;;;;;;;11.20;2.15;;;17.30;77.30;;;;;;4218530;27;20543;-49
2023/12/10 09:57:37;;;;;;;8.82;2.60;;;17.80;76.20;;;;;;4209319;27;20132;-51
2023/12/10 10:00:18;;;;;;;6.75;1.65;;;18.20;74.80;;;;;;4207319;27;20055;-51
2023/12/10 10:03:02;;;;;;;7.45;1.48;;;18.70;72.90;;;;;;4216875;27;20498;-50
2023/12/10 10:05:44;;;;;;;7.47;2.22;;;19.10;71.20;;;;;;4217672;27;20094;-52
2023/12/10 10:08:26;;;;;;;4.72;1.52;;;19.40;69.70;;;;;;4208120;27;20066;-50
2023/12/10 10:11:07;;;;;;;6.78;1.45;;;19.60;68.70;;;;;;4219728;27;20374;-52
2023/12/10 10:13:52;;;;;;;8.70;2.63;;;19.70;67.90;;;;;;4216178;28;20116;-52
2023/12/10 10:16:33;;;;;;;8.65;2.40;;;19.80;67.60;;;;;;4198710;28;20051;-50
2023/12/10 10:19:16;;;;;;;7.85;2.78;;;19.70;67.50;;;;;;4200819;28;20059;-52
2023/12/10 10:21:57;;;;;;;7.47;2.10;;;19.60;67.80;;;;;;4202256;27;20114;-51
2023/12/10 10:24:38;;;;;;;6.47;1.67;;;19.40;68.60;;;;;;4201266;28;20502;-50
2023/12/10 10:27:19;;;;;;;5.75;1.65;;;19.30;70.30;;;;;;4206954;27;20051;-47
2023/12/10 10:30:03;;;;;;;6.72;2.72;;;19.30;69.80;;;;;;4199998;28;20090;-47
2023/12/10 10:32:44;;;;;;;8.50;2.40;;;19.30;70.10;;;;;;4199114;28;20059;-46
2023/12/10 10:35:27;;;;;;;7.82;2.00;;;19.30;70.00;;;;;;4185598;27;20183;-47
2023/12/10 10:38:08;;;;;;;7.22;1.70;;;19.20;69.80;;;;;;4217386;27;20055;-47
2023/12/10 10:40:49;;;;;;;6.07;2.22;;;19.20;69.70;;;;;;4200590;27;20055;-47
2023/12/10 10:43:30;;;;;;;5.75;2.20;;;19.20;70.80;;;;;;4189634;28;20182;-47
2023/12/10 10:46:12;;;;;;;7.10;2.45;;;19.20;70.60;;;;;;4196953;28;20122;-46
2023/12/10 10:48:53;;;;;;;4.28;2.33;;;19.10;70.60;;;;;;4184915;28;20051;-48
2023/12/10 10:51:36;;;;;;;5.53;2.08;;;19.00;71.00;;;;;;4203461;28;20047;-47
2023/12/10 10:54:18;;;;;;;9.02;2.67;;;18.90;71.30;;;;;;4204228;28;20059;-46
2023/12/10 10:56:59;;;;;;;15.15;4.07;;;18.80;72.40;;;;;;4205942;28;20055;-47
2023/12/10 10:59:41;;;;;;;25.80;5.30;;;18.70;73.20;;;;;;4206143;28;20055;-45
2023/12/10 11:02:22;;;;;;;10.10;3.33;;;18.60;74.30;;;;;;4205072;28;20067;-47
2023/12/10 11:05:02;;;;;;;10.45;2.40;;;18.50;75.10;;;;;;4205775;28;20456;-52
2023/12/10 11:07:49;;;;;;;12.48;3.08;;;18.50;75.80;;;;;;4199058;28;20055;-48
2023/12/10 11:10:30;;;;;;;15.00;4.72;;;18.40;75.30;;;;;;4205963;28;20200;-50
2023/12/10 11:13:11;;;;;;;20.00;5.55;;;18.40;75.60;;;;;;4182234;28;20416;-49
2023/12/10 11:15:57;;;;;;;15.57;5.78;;;18.40;76.00;;;;;;4180570;28;20202;-49
2023/12/10 11:18:51;;;;;;;17.48;5.03;;;18.40;75.40;;;;;;4187190;28;20097;-50
2023/12/10 11:21:32;;;;;;;12.88;4.80;;;18.50;74.80;;;;;;4181630;28;20074;-49
2023/12/10 11:24:18;;;;;;;20.73;4.22;;;18.60;74.80;;;;;;4187541;28;20407;-53
2023/12/10 11:27:00;;;;;;;14.73;5.45;;;18.60;74.40;;;;;;4183031;28;20448;-52
2023/12/10 11:29:41;;;;;;;19.02;4.22;;;18.70;74.30;;;;;;4179405;28;20119;-52
2023/12/10 11:32:23;;;;;;;15.30;4.30;;;18.70;73.70;;;;;;4181265;28;20194;-51
2023/12/10 11:35:05;;;;;;;19.33;5.75;;;18.70;73.50;;;;;;4167954;28;20450;-50
2023/12/10 11:37:47;;;;;;;12.30;6.25;;;18.80;73.40;;;;;;4182091;28;20055;-50
2023/12/10 11:40:30;;;;;;;16.98;3.67;;;18.80;73.30;;;;;;4197949;27;20055;-54
2023/12/10 11:43:13;;;;;;;17.10;6.20;;;18.80;73.10;;;;;;4193665;28;20701;-50
2023/12/10 11:45:55;;;;;;;12.30;4.30;;;18.80;72.80;;;;;;4206209;27;20607;-51
2023/12/10 11:48:37;;;;;;;19.17;5.30;;;18.80;72.80;;;;;;4187196;28;20059;-50
2023/12/10 11:51:19;;;;;;;13.82;3.90;;;18.70;73.10;;;;;;4202912;28;20059;-52
2023/12/10 11:54:02;;;;;;;19.95;5.82;;;18.70;73.10;;;;;;4176552;28;20051;-50
2023/12/10 11:56:46;;;;;;;21.02;6.65;;;18.60;73.10;;;;;;4202549;28;20593;-53
2023/12/10 11:59:26;;;;;;;21.42;6.10;;;18.50;73.50;;;;;;4185446;28;20055;-50
2023/12/10 12:02:08;;;;;;;20.48;5.80;;;18.50;73.70;;;;;;4189689;28;20055;-50
2023/12/10 12:04:51;;;;;;;16.75;6.40;;;18.40;74.00;;;;;;4187590;28;20067;-51
2023/12/10 12:07:34;;;;;;;19.25;4.78;;;18.30;74.10;;;;;;4185317;28;20059;-51
2023/12/10 12:10:17;;;;;;;23.38;8.43;;;18.30;74.60;;;;;;4196806;28;20402;-51
2023/12/10 12:13:00;;;;;;;23.05;6.57;;;18.20;75.00;;;;;;4200802;28;20055;-53
2023/12/10 12:15:45;;;;;;;17.90;5.38;;;18.10;75.20;;;;;;4204727;28;20055;-50
2023/12/10 12:18:27;;;;;;;23.77;6.10;;;18.10;75.20;;;;;;4172527;28;20098;-49
2023/12/10 12:21:08;;;;;;;17.58;5.60;;;18.10;75.40;;;;;;4170880;28;20055;-50
2023/12/10 12:23:50;;;;;;;14.63;5.40;;;18.10;75.40;;;;;;4179658;28;20133;-51
2023/12/10 12:26:31;;;;;;;13.63;4.00;;;18.10;75.50;;;;;;4187576;28;20097;-49
2023/12/10 12:29:14;;;;;;;19.83;7.00;;;18.10;75.50;;;;;;4186496;28;20174;-50
2023/12/10 12:31:55;;;;;;;18.58;8.10;;;18.20;75.30;;;;;;4202906;28;20402;-50
2023/12/10 12:34:45;;;;;;;20.55;5.93;;;18.30;75.10;;;;;;4193671;28;20051;-51
2023/12/10 12:37:26;;;;;;;23.58;6.63;;;18.30;75.00;;;;;;4193713;28;20067;-52
2023/12/10 12:40:08;;;;;;;24.48;5.97;;;18.30;74.60;;;;;;4201540;28;20047;-50
2023/12/10 12:42:50;;;;;;;26.58;5.30;;;18.30;74.80;;;;;;4202867;28;20052;-48
2023/12/10 12:45:32;;;;;;;24.83;5.55;;;18.20;74.70;;;;;;4190468;28;20404;-48
2023/12/10 12:48:13;;;;;;;19.48;6.43;;;18.20;74.90;;;;;;4186342;28;20197;-50
2023/12/10 12:50:54;;;;;;;17.60;6.15;;;18.30;75.00;;;;;;4180078;28;20541;-50
2023/12/10 12:53:35;;;;;;;18.80;5.65;;;18.30;74.80;;;;;;4174090;28;20052;-52
2023/12/10 12:56:36;;;;;;;23.95;5.10;;;18.30;74.50;;;;;;4186575;28;20052;-51
2023/12/10 12:59:17;;;;;;;21.42;6.40;;;18.30;74.80;;;;;;4187608;28;20059;-52
2023/12/10 13:02:00;;;;;;;18.23;4.68;;;18.30;74.80;;;;;;4187378;28;20101;-52
2023/12/10 13:04:41;;;;;;;20.67;5.78;;;18.30;74.50;;;;;;4203982;28;20054;-54
2023/12/10 13:07:22;;;;;;;;;;;18.30;75.20;;;;;;4203072;28;20067;-50
2023/12/10 13:10:03;;;;;;;17.25;4.68;;;18.30;75.80;;;;;;4191303;28;19931;-55
2023/12/10 13:12:44;;;;;;;;;;;18.30;76.30;;;;;;4204606;28;20055;-58
2023/12/10 13:15:26;;;;;;;19.85;4.25;;;18.40;76.10;;;;;;4204538;28;19963;-58
2023/12/10 13:18:08;;;;;;;14.73;3.58;;;18.40;75.50;;;;;;4199699;28;20096;-59
2023/12/10 13:20:50;;;;;;;14.45;4.70;;;18.40;75.00;;;;;;4199866;27;20459;-59
2023/12/10 13:23:31;;;;;;;25.05;6.45;;;18.50;74.90;;;;;;4196883;28;20492;-58
2023/12/10 13:26:12;;;;;;;20.40;7.10;;;18.40;74.70;;;;;;4205696;28;20078;-58
2023/12/10 13:28:53;;;;;;;15.55;3.80;;;18.50;74.80;;;;;;4204051;27;20086;-61
2023/12/10 13:31:34;;;;;;;15.77;4.55;;;18.50;74.70;;;;;;4170481;28;20407;-59
2023/12/10 13:34:16;;;;;;;12.68;4.63;;;18.60;74.30;;;;;;4174667;28;20047;-57
2023/12/10 13:36:57;;;;;;;17.85;4.53;;;18.60;74.30;;;;;;4184585;28;20064;-63
2023/12/10 13:39:39;;;;;;;17.00;4.53;;;18.60;74.50;;;;;;4195101;28;20511;-58
2023/12/10 13:42:20;;;;;;;19.13;4.57;;;18.60;74.00;;;;;;4204029;28;20149;-55
2023/12/10 13:45:01;;;;;;;20.02;5.40;;;18.70;74.00;;;;;;4190151;28;20051;-57
2023/12/10 13:47:43;;;;;;;13.23;4.57;;;18.70;73.70;;;;;;4202943;28;20051;-56
2023/12/10 13:50:25;;;;;;;13.77;4.20;;;18.70;73.90;;;;;;4193021;27;20063;-54
2023/12/10 13:53:07;;;;;;;14.77;3.83;;;18.70;73.80;;;;;;4210133;28;20794;-58
2023/12/10 13:55:48;;;;;;;19.58;4.55;;;18.70;73.60;;;;;;4192228;28;20047;-52
2023/12/10 13:58:29;;;;;;;18.10;3.15;;;18.60;73.60;;;;;;4185387;28;20145;-54
2023/12/10 14:01:10;;;;;;;17.38;3.70;;;18.60;73.60;;;;;;4182533;28;20055;-52
2023/12/10 14:03:52;;;;;;;10.30;3.40;;;18.50;74.60;;;;;;4188603;28;20064;-54
2023/12/10 14:06:34;;;;;;;15.15;2.78;;;18.50;73.90;;;;;;4179339;28;20573;-53
2023/12/10 14:09:15;;;;;;;11.23;3.72;;;18.50;73.90;;;;;;4203076;28;20172;-50
2023/12/10 14:11:57;;;;;;;12.00;3.55;;;18.50;73.30;;;;;;4188089;28;20059;-52
2023/12/10 14:14:39;;;;;;;9.75;2.42;;;18.50;73.20;;;;;;4187078;28;20063;-52
2023/12/10 14:17:20;;;;;;;14.25;2.90;;;18.50;73.40;;;;;;4178051;28;20055;-52
2023/12/10 14:20:01;;;;;;;13.63;3.30;;;18.40;73.40;;;;;;4202006;28;20109;-53
2023/12/10 14:22:44;;;;;;;12.07;2.72;;;18.40;73.70;;;;;;4188216;28;20059;-51
2023/12/10 14:25:26;;;;;;;13.00;3.63;;;18.40;74.00;;;;;;4186586;28;20050;-52
2023/12/10 14:28:09;;;;;;;10.07;2.72;;;18.30;74.00;;;;;;4178629;28;20059;-52
2023/12/10 14:30:50;;;;;;;11.75;2.70;;;18.20;74.00;;;;;;4188663;28;20059;-54
2023/12/10 14:33:32;;;;;;;10.30;2.97;;;18.10;74.20;;;;;;4186918;28;20154;-54
2023/12/10 14:36:14;;;;;;;10.93;3.40;;;18.10;74.50;;;;;;4197053;28;20046;-51
2023/12/10 14:38:57;;;;;;;14.55;3.78;;;18.00;75.00;;;;;;4203160;27;20548;-51
2023/12/10 14:41:39;;;;;;;19.30;4.13;;;17.90;75.30;;;;;;4177779;28;20047;-54
2023/12/10 14:44:20;;;;;;;12.40;4.28;;;17.80;75.70;;;;;;4172765;28;20051;-52
2023/12/10 14:47:01;;;;;;;13.95;3.22;;;17.80;76.20;;;;;;4184314;28;20167;-57
2023/12/10 14:49:43;;;;;;;10.27;3.53;;;17.80;76.90;;;;;;4200950;28;20104;-57
2023/12/10 14:52:25;;;;;;;;;;;17.80;77.60;;;;;;4203746;28;20597;-57
2023/12/10 14:55:08;;;;;;;13.68;3.60;;;17.80;78.50;;;;;;4174181;28;20471;-57
2023/12/10 14:57:49;;;;;;;12.07;3.08;;;17.90;78.80;;;;;;4180808;28;20059;-57
2023/12/10 15:00:31;;;;;;;13.38;4.38;;;18.00;78.70;;;;;;4188135;28;20411;-57